Mercer County Airport
KBLF : now visible

Airfield :











YOU CAN JOIN US ON...

 
LOGIN :

Register | Disclaimer

   EN    FR    IT 

 









Legend :    VFR   Marginal VFR   IFR   Intensive IFR   Very Intensive IFR
Visi :
Ceiling :
>= 8 km
>= 3000ft
5 to 8 km
1000 to 3000 ft
1500m to 5 km
500 to 1000 ft
800 to 1500m
200 to 500 ft
< 800m
< 200 ft
Symbols :   Thunderstorms  Fog  Heavy snow  Heavy precipitations  Wind > 20 kt






- Airport Elevation : 2857 ft
- IATA code : BLF


KBLF - Mercer County

CURRENT METAR :
  • 010152Z AUTO 00000KT 1 1/4SM -SN BR OVC003 00/00 A2976 RMK AO2 SLP086 P0001 T00000000 TSNO

EXPIRED METARs :
  • 010145Z AUTO 00000KT 1 3/4SM -SN BR OVC003 00/00 A2976 RMK AO2 P0000 T00000000 TSNO
  • 010100Z AUTO 07003KT 5SM -SN BR OVC002 00/00 A2975 RMK AO2 P0000 T00000000 TSNO
  • 010045Z AUTO 00000KT 2SM -SN BR OVC003 01/01 A2974 RMK AO2 P0002 T00060006 TSNO
  • 010031Z AUTO 00000KT 1 3/4SM -SN BR OVC003 01/01 A2974 RMK AO2 P0001 T00060006 TSNO
  • 010012Z AUTO 08004KT 3SM -SN BR OVC003 01/01 A2974 RMK AO2 P0000 T00060006 TSNO
  • 010001Z AUTO 09003KT 1 1/4SM -SN BR OVC003 01/01 A2974 RMK AO2 P0000 T00060006 TSNO
  • 312352Z AUTO 09004KT 2SM -SN BR OVC003 01/01 A2974 RMK AO2 SLP078 P0003 60032 T00060006 10028 20006 50000 TSNO
  • 312343Z AUTO 11003KT 2SM -SN BR OVC003 01/01 A2974 RMK AO2 P0003 T00060006 TSNO
  • 312332Z AUTO VRB03KT 3SM -SN BR BKN003 OVC015 01/01 A2975 RMK AO2 P0002 T00060006 TSNO

TAF KBLF
Valid from the 01 at 00:00 until the 02 at 00:00 UTC


312327Z 0100/0124 08005KT 4SM -RASN OVC005
TEMPO 0102/0105 2SM -SN OVC003
FM010500 33005KT 5SM -RASN BR OVC003
FM011300 30006KT 6SM -SN BR OVC005
FM011900 30008KT P6SM OVC015



MET'MAP, your aeronautical weather chart ! - Copyright ORBIFLY December 2007 - Disclaimer

ORBIFLY MET'MAP TEAM :

Programming & Development : Alexandra Zaïnal
Concept & original design : Baudouin d'Aumeries
Assistance for programming : Marc-Olivier Méhu
Technical & hardware support : Manuel Goepfert

Contact : metmap@orbifly.com




SOURCES & CREDITS :

   NOAA       Earth
Advisory